sensor_id;sensor_type;location;lat;lon;timestamp;pressure;altitude;pressure_sealevel;temperature;humidity
69239;BME280;56349;51.816;-0.026;2023-02-14T00:01:41;102636.87;;;23.52;29.01
69239;BME280;56349;51.816;-0.026;2023-02-14T00:04:06;102634.92;;;23.52;29.05
69239;BME280;56349;51.816;-0.026;2023-02-14T00:06:32;102633.98;;;23.54;29.07
69239;BME280;56349;51.816;-0.026;2023-02-14T00:08:58;102630.40;;;23.56;29.06
69239;BME280;56349;51.816;-0.026;2023-02-14T00:11:23;102630.40;;;23.61;29.03
69239;BME280;56349;51.816;-0.026;2023-02-14T00:13:49;102631.29;;;23.67;28.99
69239;BME280;56349;51.816;-0.026;2023-02-14T00:16:15;102630.45;;;23.73;28.94
69239;BME280;56349;51.816;-0.026;2023-02-14T00:18:41;102629.95;;;23.57;28.87
69239;BME280;56349;51.816;-0.026;2023-02-14T00:21:07;102631.71;;;23.83;28.84
69239;BME280;56349;51.816;-0.026;2023-02-14T00:23:33;102630.95;;;23.67;28.78
69239;BME280;56349;51.816;-0.026;2023-02-14T00:25:58;102631.47;;;23.49;28.73
69239;BME280;56349;51.816;-0.026;2023-02-14T00:28:24;102630.38;;;24.01;28.67
69239;BME280;56349;51.816;-0.026;2023-02-14T00:30:50;102628.78;;;23.64;28.58
69239;BME280;56349;51.816;-0.026;2023-02-14T00:33:16;102624.53;;;23.92;28.51
69239;BME280;56349;51.816;-0.026;2023-02-14T00:35:42;102622.87;;;23.96;28.44
69239;BME280;56349;51.816;-0.026;2023-02-14T00:38:08;102621.92;;;23.78;28.38
69239;BME280;56349;51.816;-0.026;2023-02-14T00:40:34;102620.91;;;24.25;28.33
69239;BME280;56349;51.816;-0.026;2023-02-14T00:43:00;102620.27;;;23.84;28.27
69239;BME280;56349;51.816;-0.026;2023-02-14T00:45:26;102616.74;;;23.86;28.23
69239;BME280;56349;51.816;-0.026;2023-02-14T00:47:52;102617.98;;;24.11;28.16
69239;BME280;56349;51.816;-0.026;2023-02-14T00:50:17;102616.01;;;23.92;28.10
69239;BME280;56349;51.816;-0.026;2023-02-14T00:52:43;102618.33;;;23.94;28.05
69239;BME280;56349;51.816;-0.026;2023-02-14T00:55:09;102613.58;;;23.97;28.03
69239;BME280;56349;51.816;-0.026;2023-02-14T00:57:35;102614.22;;;24.21;27.96
69239;BME280;56349;51.816;-0.026;2023-02-14T01:00:02;102611.40;;;24.00;27.92
69239;BME280;56349;51.816;-0.026;2023-02-14T01:02:27;102612.71;;;24.01;27.87
69239;BME280;56349;51.816;-0.026;2023-02-14T01:04:53;102612.01;;;24.03;27.81
69239;BME280;56349;51.816;-0.026;2023-02-14T01:07:19;102608.09;;;24.50;27.73
69239;BME280;56349;51.816;-0.026;2023-02-14T01:09:45;102609.18;;;24.01;27.65
69239;BME280;56349;51.816;-0.026;2023-02-14T01:12:11;102606.90;;;23.89;27.65
69239;BME280;56349;51.816;-0.026;2023-02-14T01:14:37;102610.84;;;23.75;27.68
69239;BME280;56349;51.816;-0.026;2023-02-14T01:17:02;102610.19;;;23.76;27.78
69239;BME280;56349;51.816;-0.026;2023-02-14T01:19:28;102613.19;;;23.76;27.88
69239;BME280;56349;51.816;-0.026;2023-02-14T01:21:54;102608.98;;;23.51;28.03
69239;BME280;56349;51.816;-0.026;2023-02-14T01:24:21;102607.85;;;23.26;28.19
69239;BME280;56349;51.816;-0.026;2023-02-14T01:26:46;102601.52;;;22.99;28.36
69239;BME280;56349;51.816;-0.026;2023-02-14T01:29:12;102604.41;;;22.98;28.57
69239;BME280;56349;51.816;-0.026;2023-02-14T01:31:38;102604.08;;;22.90;28.78
69239;BME280;56349;51.816;-0.026;2023-02-14T01:34:04;102602.42;;;22.62;29.02
69239;BME280;56349;51.816;-0.026;2023-02-14T01:36:32;102606.99;;;22.36;29.25
69239;BME280;56349;51.816;-0.026;2023-02-14T01:38:57;102605.14;;;22.57;29.50
69239;BME280;56349;51.816;-0.026;2023-02-14T01:41:22;102608.01;;;22.34;29.73
69239;BME280;56349;51.816;-0.026;2023-02-14T01:43:50;102608.55;;;22.07;29.96
69239;BME280;56349;51.816;-0.026;2023-02-14T01:46:13;102602.65;;;21.84;30.19
69239;BME280;56349;51.816;-0.026;2023-02-14T01:48:39;102600.71;;;21.62;30.38
69239;BME280;56349;51.816;-0.026;2023-02-14T01:51:04;102598.96;;;21.40;30.61
69239;BME280;56349;51.816;-0.026;2023-02-14T01:53:30;102595.87;;;21.40;30.84
69239;BME280;56349;51.816;-0.026;2023-02-14T01:56:01;102598.00;;;21.21;31.03
69239;BME280;56349;51.816;-0.026;2023-02-14T01:58:24;102595.88;;;20.79;31.24
69239;BME280;56349;51.816;-0.026;2023-02-14T02:00:49;102592.34;;;21.10;31.43
69239;BME280;56349;51.816;-0.026;2023-02-14T02:03:15;102597.31;;;20.95;31.61
69239;BME280;56349;51.816;-0.026;2023-02-14T02:05:41;102602.07;;;20.77;31.79
69239;BME280;56349;51.816;-0.026;2023-02-14T02:08:06;102602.94;;;20.34;31.96
69239;BME280;56349;51.816;-0.026;2023-02-14T02:10:32;102590.87;;;20.44;32.15
69239;BME280;56349;51.816;-0.026;2023-02-14T02:13:05;102593.54;;;20.03;32.31
69239;BME280;56349;51.816;-0.026;2023-02-14T02:15:25;102599.67;;;20.15;32.48
69239;BME280;56349;51.816;-0.026;2023-02-14T02:17:54;102594.61;;;20.03;32.62
69239;BME280;56349;51.816;-0.026;2023-02-14T02:25:12;102582.13;;;19.86;33.07
69239;BME280;56349;51.816;-0.026;2023-02-14T02:27:41;102588.06;;;19.72;33.22
69239;BME280;56349;51.816;-0.026;2023-02-14T02:37:23;102585.80;;;19.52;33.73
69239;BME280;56349;51.816;-0.026;2023-02-14T02:39:48;102583.74;;;19.69;33.86
69239;BME280;56349;51.816;-0.026;2023-02-14T02:42:09;102590.63;;;19.34;33.95
69239;BME280;56349;51.816;-0.026;2023-02-14T02:44:39;102588.20;;;19.26;34.05
69239;BME280;56349;51.816;-0.026;2023-02-14T02:47:01;102593.47;;;19.43;34.18
69239;BME280;56349;51.816;-0.026;2023-02-14T02:49:31;102591.43;;;19.57;34.27
69239;BME280;56349;51.816;-0.026;2023-02-14T02:51:51;102586.99;;;18.99;34.37
69239;BME280;56349;51.816;-0.026;2023-02-14T02:54:17;102590.41;;;19.18;34.45
69239;BME280;56349;51.816;-0.026;2023-02-14T02:56:42;102590.68;;;18.84;34.54
69239;BME280;56349;51.816;-0.026;2023-02-14T02:59:07;102583.94;;;19.03;34.64
69239;BME280;56349;51.816;-0.026;2023-02-14T03:01:38;102581.19;;;18.68;34.71
69239;BME280;56349;51.816;-0.026;2023-02-14T03:03:58;102586.29;;;18.89;34.78
69239;BME280;56349;51.816;-0.026;2023-02-14T03:06:20;102576.48;;;18.85;34.84
69239;BME280;56349;51.816;-0.026;2023-02-14T03:08:46;102573.98;;;19.00;34.92
69239;BME280;56349;51.816;-0.026;2023-02-14T03:11:12;102579.97;;;18.94;34.98
69239;BME280;56349;51.816;-0.026;2023-02-14T03:16:18;102585.39;;;18.61;35.12
69239;BME280;56349;51.816;-0.026;2023-02-14T03:18:38;102581.33;;;18.78;35.18
69239;BME280;56349;51.816;-0.026;2023-02-14T03:21:02;102581.51;;;18.72;35.25
69239;BME280;56349;51.816;-0.026;2023-02-14T03:23:22;102580.40;;;18.67;35.29
69239;BME280;56349;51.816;-0.026;2023-02-14T03:25:53;102575.83;;;18.61;35.36
69239;BME280;56349;51.816;-0.026;2023-02-14T03:28:15;102569.17;;;18.55;35.41
69239;BME280;56349;51.816;-0.026;2023-02-14T03:30:43;102570.50;;;18.50;35.49
69239;BME280;56349;51.816;-0.026;2023-02-14T03:33:05;102571.48;;;18.45;35.52
69239;BME280;56349;51.816;-0.026;2023-02-14T03:35:33;102572.04;;;18.41;35.59
69239;BME280;56349;51.816;-0.026;2023-02-14T03:37:59;102572.56;;;18.36;35.64
69239;BME280;56349;51.816;-0.026;2023-02-14T03:40:24;102565.63;;;18.29;35.73
69239;BME280;56349;51.816;-0.026;2023-02-14T03:42:50;102560.53;;;18.24;35.79
69239;BME280;56349;51.816;-0.026;2023-02-14T03:45:17;102567.00;;;18.21;35.83
69239;BME280;56349;51.816;-0.026;2023-02-14T03:47:40;102564.45;;;18.17;35.87
69239;BME280;56349;51.816;-0.026;2023-02-14T03:50:08;102560.14;;;18.14;35.91
69239;BME280;56349;51.816;-0.026;2023-02-14T03:52:32;102561.80;;;18.14;35.91
69239;BME280;56349;51.816;-0.026;2023-02-14T03:54:57;102558.28;;;18.09;35.94
69239;BME280;56349;51.816;-0.026;2023-02-14T03:57:24;102560.16;;;18.06;35.98
69239;BME280;56349;51.816;-0.026;2023-02-14T03:59:48;102559.79;;;18.01;36.01
69239;BME280;56349;51.816;-0.026;2023-02-14T04:02:16;102559.28;;;17.99;36.03
69239;BME280;56349;51.816;-0.026;2023-02-14T04:04:42;102567.79;;;17.95;36.07
69239;BME280;56349;51.816;-0.026;2023-02-14T04:07:09;102568.53;;;17.91;36.11
69239;BME280;56349;51.816;-0.026;2023-02-14T04:09:31;102568.19;;;17.87;36.15
69239;BME280;56349;51.816;-0.026;2023-02-14T04:11:56;102569.61;;;18.09;36.20
69239;BME280;56349;51.816;-0.026;2023-02-14T04:14:22;102576.20;;;17.79;36.22
69239;BME280;56349;51.816;-0.026;2023-02-14T04:16:48;102570.49;;;17.78;36.23
69239;BME280;56349;51.816;-0.026;2023-02-14T04:19:14;102569.45;;;18.04;36.22
69239;BME280;56349;51.816;-0.026;2023-02-14T04:21:40;102569.96;;;18.01;36.26
69239;BME280;56349;51.816;-0.026;2023-02-14T04:24:06;102567.02;;;17.73;36.27
69239;BME280;56349;51.816;-0.026;2023-02-14T04:26:32;102563.88;;;17.72;36.27
69239;BME280;56349;51.816;-0.026;2023-02-14T04:28:58;102561.40;;;17.70;36.30
69239;BME280;56349;51.816;-0.026;2023-02-14T04:31:24;102562.02;;;17.69;36.35
69239;BME280;56349;51.816;-0.026;2023-02-14T04:33:49;102561.87;;;17.74;36.39
69239;BME280;56349;51.816;-0.026;2023-02-14T04:36:16;102564.68;;;18.07;36.44
69239;BME280;56349;51.816;-0.026;2023-02-14T04:38:42;102564.10;;;17.89;36.47
69239;BME280;56349;51.816;-0.026;2023-02-14T04:41:07;102562.67;;;18.03;36.42
69239;BME280;56349;51.816;-0.026;2023-02-14T04:43:33;102566.58;;;18.50;36.27
69239;BME280;56349;51.816;-0.026;2023-02-14T04:45:59;102566.63;;;17.96;36.02
69239;BME280;56349;51.816;-0.026;2023-02-14T04:48:25;102565.78;;;18.65;35.75
69239;BME280;56349;51.816;-0.026;2023-02-14T04:50:52;102565.43;;;18.82;35.45
69239;BME280;56349;51.816;-0.026;2023-02-14T04:53:17;102556.29;;;18.71;35.22
69239;BME280;56349;51.816;-0.026;2023-02-14T04:55:44;102559.35;;;18.53;35.02
69239;BME280;56349;51.816;-0.026;2023-02-14T04:58:09;102561.76;;;18.88;34.82
69239;BME280;56349;51.816;-0.026;2023-02-14T05:00:35;102562.52;;;18.62;34.71
69239;BME280;56349;51.816;-0.026;2023-02-14T05:03:01;102565.14;;;18.86;34.66
69239;BME280;56349;51.816;-0.026;2023-02-14T05:05:27;102563.69;;;18.55;34.64
69239;BME280;56349;51.816;-0.026;2023-02-14T05:07:53;102561.61;;;18.75;34.68
69239;BME280;56349;51.816;-0.026;2023-02-14T05:10:19;102563.14;;;18.43;34.76
69239;BME280;56349;51.816;-0.026;2023-02-14T05:12:45;102556.74;;;18.89;34.85
69239;BME280;56349;51.816;-0.026;2023-02-14T05:15:11;102548.50;;;18.63;35.00
69239;BME280;56349;51.816;-0.026;2023-02-14T05:17:37;102557.24;;;18.81;35.16
69239;BME280;56349;51.816;-0.026;2023-02-14T05:20:04;102557.77;;;18.79;35.34
69239;BME280;56349;51.816;-0.026;2023-02-14T05:22:29;102565.19;;;18.77;35.49
69239;BME280;56349;51.816;-0.026;2023-02-14T05:24:55;102569.95;;;18.75;35.67
69239;BME280;56349;51.816;-0.026;2023-02-14T05:27:21;102568.93;;;18.73;35.83
69239;BME280;56349;51.816;-0.026;2023-02-14T05:29:47;102565.52;;;18.74;35.98
69239;BME280;56349;51.816;-0.026;2023-02-14T05:32:13;102569.62;;;18.76;36.15
69239;BME280;56349;51.816;-0.026;2023-02-14T05:34:39;102568.37;;;18.55;36.27
69239;BME280;56349;51.816;-0.026;2023-02-14T05:37:05;102568.68;;;18.55;36.41
69239;BME280;56349;51.816;-0.026;2023-02-14T05:39:32;102569.91;;;18.79;36.54
69239;BME280;56349;51.816;-0.026;2023-02-14T05:41:58;102566.67;;;18.82;36.63
69239;BME280;56349;51.816;-0.026;2023-02-14T05:44:24;102568.34;;;18.84;36.73
69239;BME280;56349;51.816;-0.026;2023-02-14T05:46:50;102566.25;;;18.87;36.80
69239;BME280;56349;51.816;-0.026;2023-02-14T05:49:16;102559.42;;;18.89;36.90
69239;BME280;56349;51.816;-0.026;2023-02-14T05:51:42;102555.98;;;18.70;36.98
69239;BME280;56349;51.816;-0.026;2023-02-14T05:54:07;102553.79;;;18.74;37.01
69239;BME280;56349;51.816;-0.026;2023-02-14T05:56:33;102555.69;;;18.98;37.07
69239;BME280;56349;51.816;-0.026;2023-02-14T05:58:59;102552.51;;;18.79;37.13
69239;BME280;56349;51.816;-0.026;2023-02-14T06:01:25;102559.37;;;19.06;37.17
69239;BME280;56349;51.816;-0.026;2023-02-14T06:03:51;102562.86;;;18.88;37.18
69239;BME280;56349;51.816;-0.026;2023-02-14T06:06:17;102559.53;;;18.91;37.24
69239;BME280;56349;51.816;-0.026;2023-02-14T06:08:43;102560.59;;;19.17;37.26
69239;BME280;56349;51.816;-0.026;2023-02-14T06:11:08;102559.11;;;19.20;37.30
69239;BME280;56349;51.816;-0.026;2023-02-14T06:13:34;102567.17;;;19.03;37.33
69239;BME280;56349;51.816;-0.026;2023-02-14T06:16:02;102567.60;;;19.30;37.31
69239;BME280;56349;51.816;-0.026;2023-02-14T06:18:25;102565.63;;;19.35;37.31
69239;BME280;56349;51.816;-0.026;2023-02-14T06:20:52;102568.41;;;19.15;37.34
69239;BME280;56349;51.816;-0.026;2023-02-14T06:23:17;102570.94;;;19.41;37.35
69239;BME280;56349;51.816;-0.026;2023-02-14T06:25:42;102567.17;;;19.29;37.27
69239;BME280;56349;51.816;-0.026;2023-02-14T06:28:08;102570.69;;;19.32;37.25
69239;BME280;56349;51.816;-0.026;2023-02-14T06:30:34;102571.06;;;19.56;37.18
69239;BME280;56349;51.816;-0.026;2023-02-14T06:33:00;102573.81;;;19.10;37.09
69239;BME280;56349;51.816;-0.026;2023-02-14T06:35:26;102574.47;;;19.37;37.01
69239;BME280;56349;51.816;-0.026;2023-02-14T06:37:52;102582.61;;;19.60;36.94
69239;BME280;56349;51.816;-0.026;2023-02-14T06:40:19;102584.34;;;19.59;36.91
69239;BME280;56349;51.816;-0.026;2023-02-14T06:42:43;102585.22;;;19.10;36.85
69239;BME280;56349;51.816;-0.026;2023-02-14T06:45:09;102585.65;;;19.10;36.76
69239;BME280;56349;51.816;-0.026;2023-02-14T06:47:36;102585.51;;;19.38;36.70
69239;BME280;56349;51.816;-0.026;2023-02-14T06:50:02;102587.94;;;19.13;36.59
69239;BME280;56349;51.816;-0.026;2023-02-14T06:52:27;102586.53;;;19.13;36.51
69239;BME280;56349;51.816;-0.026;2023-02-14T06:54:53;102586.59;;;19.12;36.43
69239;BME280;56349;51.816;-0.026;2023-02-14T06:57:19;102586.24;;;19.12;36.36
69239;BME280;56349;51.816;-0.026;2023-02-14T06:59:45;102590.03;;;19.09;36.30
69239;BME280;56349;51.816;-0.026;2023-02-14T07:02:11;102591.27;;;19.31;36.26
69239;BME280;56349;51.816;-0.026;2023-02-14T07:04:37;102595.58;;;19.27;36.22
69239;BME280;56349;51.816;-0.026;2023-02-14T07:07:03;102594.82;;;19.23;36.20
69239;BME280;56349;51.816;-0.026;2023-02-14T07:09:29;102595.76;;;19.19;36.16
69239;BME280;56349;51.816;-0.026;2023-02-14T07:11:55;102595.66;;;18.89;36.13
69239;BME280;56349;51.816;-0.026;2023-02-14T07:14:21;102595.34;;;19.13;36.08
69239;BME280;56349;51.816;-0.026;2023-02-14T07:16:46;102596.32;;;19.34;36.03
69239;BME280;56349;51.816;-0.026;2023-02-14T07:19:12;102595.53;;;19.09;35.98
69239;BME280;56349;51.816;-0.026;2023-02-14T07:21:38;102597.73;;;19.28;35.94
69239;BME280;56349;51.816;-0.026;2023-02-14T07:24:04;102601.47;;;19.27;35.88
69239;BME280;56349;51.816;-0.026;2023-02-14T07:26:30;102610.55;;;19.21;35.86
69239;BME280;56349;51.816;-0.026;2023-02-14T07:28:56;102612.78;;;18.67;35.84
69239;BME280;56349;51.816;-0.026;2023-02-14T07:31:22;102610.05;;;18.90;35.82
69239;BME280;56349;51.816;-0.026;2023-02-14T07:33:48;102610.58;;;19.08;35.81
69239;BME280;56349;51.816;-0.026;2023-02-14T07:36:14;102616.63;;;19.04;35.79
69239;BME280;56349;51.816;-0.026;2023-02-14T07:38:40;102614.93;;;19.01;35.75
69239;BME280;56349;51.816;-0.026;2023-02-14T07:41:06;102615.77;;;18.97;35.73
69239;BME280;56349;51.816;-0.026;2023-02-14T07:43:31;102612.93;;;18.93;35.71
69239;BME280;56349;51.816;-0.026;2023-02-14T07:45:59;102618.43;;;18.90;35.70
69239;BME280;56349;51.816;-0.026;2023-02-14T07:48:22;102619.40;;;18.62;35.69
69239;BME280;56349;51.816;-0.026;2023-02-14T07:50:48;102618.67;;;18.82;35.67
69239;BME280;56349;51.816;-0.026;2023-02-14T07:53:14;102618.13;;;18.79;35.66
69239;BME280;56349;51.816;-0.026;2023-02-14T07:55:40;102620.79;;;18.53;35.66
69239;BME280;56349;51.816;-0.026;2023-02-14T07:58:06;102626.63;;;18.75;35.60
69239;BME280;56349;51.816;-0.026;2023-02-14T08:00:32;102626.23;;;18.50;35.64
69239;BME280;56349;51.816;-0.026;2023-02-14T08:02:58;102626.54;;;18.49;35.75
69239;BME280;56349;51.816;-0.026;2023-02-14T08:05:24;102629.36;;;18.76;35.95
69239;BME280;56349;51.816;-0.026;2023-02-14T08:07:49;102632.06;;;18.87;36.19
69239;BME280;56349;51.816;-0.026;2023-02-14T08:10:16;102633.84;;;18.57;36.36
69239;BME280;56349;51.816;-0.026;2023-02-14T08:12:47;102634.52;;;19.30;36.47
69239;BME280;56349;51.816;-0.026;2023-02-14T08:15:08;102628.76;;;19.13;36.54
69239;BME280;56349;51.816;-0.026;2023-02-14T08:17:33;102633.17;;;19.50;36.55
69239;BME280;56349;51.816;-0.026;2023-02-14T08:19:59;102632.86;;;19.69;36.50
69239;BME280;56349;51.816;-0.026;2023-02-14T08:22:25;102637.88;;;20.15;36.25
69239;BME280;56349;51.816;-0.026;2023-02-14T08:24:51;102638.79;;;20.40;35.98
69239;BME280;56349;51.816;-0.026;2023-02-14T08:27:16;102634.69;;;20.85;35.68
69239;BME280;56349;51.816;-0.026;2023-02-14T08:29:42;102635.20;;;21.29;35.32
69239;BME280;56349;51.816;-0.026;2023-02-14T08:32:08;102633.42;;;21.46;34.99
69239;BME280;56349;51.816;-0.026;2023-02-14T08:34:34;102632.23;;;21.66;34.64
69239;BME280;56349;51.816;-0.026;2023-02-14T08:37:00;102635.05;;;22.05;34.31
69239;BME280;56349;51.816;-0.026;2023-02-14T08:39:26;102641.81;;;21.95;33.96
69239;BME280;56349;51.816;-0.026;2023-02-14T08:41:52;102636.95;;;22.33;33.60
69239;BME280;56349;51.816;-0.026;2023-02-14T08:44:18;102634.81;;;22.70;33.24
69239;BME280;56349;51.816;-0.026;2023-02-14T08:46:43;102632.83;;;22.84;32.91
69239;BME280;56349;51.816;-0.026;2023-02-14T08:49:09;102637.16;;;23.17;32.59
69239;BME280;56349;51.816;-0.026;2023-02-14T08:51:35;102634.74;;;23.48;32.28
69239;BME280;56349;51.816;-0.026;2023-02-14T08:54:01;102634.81;;;23.78;31.96
69239;BME280;56349;51.816;-0.026;2023-02-14T08:56:27;102639.25;;;23.81;31.66
69239;BME280;56349;51.816;-0.026;2023-02-14T08:58:53;102637.02;;;23.87;31.37
69239;BME280;56349;51.816;-0.026;2023-02-14T09:01:19;102636.71;;;24.13;31.10
69239;BME280;56349;51.816;-0.026;2023-02-14T09:03:44;102632.94;;;24.60;30.87
69239;BME280;56349;51.816;-0.026;2023-02-14T09:06:12;102627.94;;;24.41;30.60
69239;BME280;56349;51.816;-0.026;2023-02-14T09:08:36;102622.65;;;24.65;30.33
69239;BME280;56349;51.816;-0.026;2023-02-14T09:11:06;102623.45;;;24.57;30.03
69239;BME280;56349;51.816;-0.026;2023-02-14T09:13:27;102621.80;;;24.91;29.52
69239;BME280;56349;51.816;-0.026;2023-02-14T09:15:53;102620.06;;;24.67;29.20
69239;BME280;56349;51.816;-0.026;2023-02-14T09:18:19;102621.29;;;24.74;29.13
69239;BME280;56349;51.816;-0.026;2023-02-14T09:20:45;102628.53;;;24.69;29.07
69239;BME280;56349;51.816;-0.026;2023-02-14T09:23:11;102631.19;;;25.11;28.93
69239;BME280;56349;51.816;-0.026;2023-02-14T09:25:37;102631.44;;;25.30;28.75
69239;BME280;56349;51.816;-0.026;2023-02-14T09:28:02;102630.25;;;25.25;28.57
69239;BME280;56349;51.816;-0.026;2023-02-14T09:30:28;102628.90;;;25.39;28.40
69239;BME280;56349;51.816;-0.026;2023-02-14T09:32:54;102623.42;;;25.31;28.26
69239;BME280;56349;51.816;-0.026;2023-02-14T09:35:20;102619.23;;;25.43;28.12
69239;BME280;56349;51.816;-0.026;2023-02-14T09:37:46;102615.48;;;25.79;27.97
69239;BME280;56349;51.816;-0.026;2023-02-14T09:40:15;102609.89;;;25.91;27.85
69239;BME280;56349;51.816;-0.026;2023-02-14T09:42:45;102608.91;;;25.99;27.71
69239;BME280;56349;51.816;-0.026;2023-02-14T09:45:09;102610.88;;;26.09;27.58
69239;BME280;56349;51.816;-0.026;2023-02-14T09:47:34;102611.43;;;25.96;27.46
69239;BME280;56349;51.816;-0.026;2023-02-14T09:49:55;102608.72;;;26.27;27.33
69239;BME280;56349;51.816;-0.026;2023-02-14T09:52:22;102606.42;;;26.06;27.10
69239;BME280;56349;51.816;-0.026;2023-02-14T09:54:50;102603.79;;;26.05;27.03
69239;BME280;56349;51.816;-0.026;2023-02-14T09:57:19;102598.89;;;26.31;26.97
69239;BME280;56349;51.816;-0.026;2023-02-14T09:59:43;102597.48;;;25.87;26.90
69239;BME280;56349;51.816;-0.026;2023-02-14T10:02:15;102601.88;;;25.92;26.80
69239;BME280;56349;51.816;-0.026;2023-02-14T10:04:32;102596.51;;;25.99;26.70
69239;BME280;56349;51.816;-0.026;2023-02-14T10:06:59;102594.43;;;26.53;26.58
69239;BME280;56349;51.816;-0.026;2023-02-14T10:09:30;102590.84;;;26.11;26.45
69239;BME280;56349;51.816;-0.026;2023-02-14T10:11:47;102594.20;;;26.14;26.34
69239;BME280;56349;51.816;-0.026;2023-02-14T10:14:15;102590.05;;;26.16;26.26
69239;BME280;56349;51.816;-0.026;2023-02-14T10:16:41;102588.51;;;26.18;26.16
69239;BME280;56349;51.816;-0.026;2023-02-14T10:19:06;102586.44;;;26.19;26.12
69239;BME280;56349;51.816;-0.026;2023-02-14T10:21:32;102584.79;;;26.19;26.07
69239;BME280;56349;51.816;-0.026;2023-02-14T10:23:59;102586.97;;;26.16;25.97
69239;BME280;56349;51.816;-0.026;2023-02-14T10:26:25;102582.57;;;26.10;25.90
69239;BME280;56349;51.816;-0.026;2023-02-14T10:28:47;102584.59;;;26.08;25.83
69239;BME280;56349;51.816;-0.026;2023-02-14T10:31:18;102585.76;;;26.07;25.77
69239;BME280;56349;51.816;-0.026;2023-02-14T10:33:37;102583.78;;;26.09;25.69
69239;BME280;56349;51.816;-0.026;2023-02-14T10:36:03;102583.62;;;26.10;25.62
69239;BME280;56349;51.816;-0.026;2023-02-14T10:38:35;102584.05;;;26.09;25.57
69239;BME280;56349;51.816;-0.026;2023-02-14T10:43:26;102576.53;;;26.04;25.51
69239;BME280;56349;51.816;-0.026;2023-02-14T10:45:52;102581.83;;;26.01;25.50
69239;BME280;56349;51.816;-0.026;2023-02-14T10:48:18;102584.44;;;25.98;25.57
69239;BME280;56349;51.816;-0.026;2023-02-14T10:50:42;102583.78;;;25.94;25.53
69239;BME280;56349;51.816;-0.026;2023-02-14T10:53:10;102582.35;;;25.90;25.50
69239;BME280;56349;51.816;-0.026;2023-02-14T10:55:37;102581.99;;;25.82;25.50
69239;BME280;56349;51.816;-0.026;2023-02-14T10:57:56;102586.43;;;26.03;25.50
69239;BME280;56349;51.816;-0.026;2023-02-14T11:00:22;102585.10;;;25.99;25.50
69239;BME280;56349;51.816;-0.026;2023-02-14T11:02:49;102584.28;;;25.65;25.51
69239;BME280;56349;51.816;-0.026;2023-02-14T11:05:18;102581.38;;;25.61;25.50
69239;BME280;56349;51.816;-0.026;2023-02-14T11:07:37;102582.96;;;25.83;25.50
69239;BME280;56349;51.816;-0.026;2023-02-14T11:10:09;102579.90;;;25.78;25.49
69239;BME280;56349;51.816;-0.026;2023-02-14T11:12:34;102577.33;;;25.47;25.48
69239;BME280;56349;51.816;-0.026;2023-02-14T11:17:27;102576.56;;;25.77;25.29
69239;BME280;56349;51.816;-0.026;2023-02-14T11:19:55;102576.23;;;25.67;25.30
69239;BME280;56349;51.816;-0.026;2023-02-14T11:22:18;102572.27;;;25.64;25.36
69239;BME280;56349;51.816;-0.026;2023-02-14T11:24:39;102570.93;;;25.62;25.39
69239;BME280;56349;51.816;-0.026;2023-02-14T11:27:16;102567.23;;;25.61;25.38
69239;BME280;56349;51.816;-0.026;2023-02-14T11:29:32;102567.88;;;25.38;25.37
69239;BME280;56349;51.816;-0.026;2023-02-14T11:31:55;102569.74;;;25.40;25.37
69239;BME280;56349;51.816;-0.026;2023-02-14T11:34:30;102565.02;;;25.39;25.37
69239;BME280;56349;51.816;-0.026;2023-02-14T11:36:45;102562.04;;;25.39;25.37
69239;BME280;56349;51.816;-0.026;2023-02-14T11:39:25;102560.25;;;25.38;25.38
69239;BME280;56349;51.816;-0.026;2023-02-14T11:44:11;102551.67;;;25.40;25.39
69239;BME280;56349;51.816;-0.026;2023-02-14T11:46:27;102545.90;;;25.87;25.41
69239;BME280;56349;51.816;-0.026;2023-02-14T11:48:56;102543.42;;;25.63;25.41
69239;BME280;56349;51.816;-0.026;2023-02-14T11:51:26;102544.23;;;25.37;25.43
69239;BME280;56349;51.816;-0.026;2023-02-14T11:53:46;102539.24;;;25.64;25.41
69239;BME280;56349;51.816;-0.026;2023-02-14T11:56:10;102537.80;;;25.89;25.37
69239;BME280;56349;51.816;-0.026;2023-02-14T11:58:38;102535.84;;;25.68;25.33
69239;BME280;56349;51.816;-0.026;2023-02-14T12:01:02;102533.60;;;25.41;25.31
69239;BME280;56349;51.816;-0.026;2023-02-14T12:03:28;102535.51;;;25.86;25.32
69239;BME280;56349;51.816;-0.026;2023-02-14T12:05:53;102534.20;;;25.59;25.32
69239;BME280;56349;51.816;-0.026;2023-02-14T12:08:24;102531.05;;;25.31;25.30
69239;BME280;56349;51.816;-0.026;2023-02-14T12:10:53;102527.01;;;25.53;25.31
69239;BME280;56349;51.816;-0.026;2023-02-14T12:15:36;102515.21;;;25.51;25.29
69239;BME280;56349;51.816;-0.026;2023-02-14T12:18:12;102508.90;;;25.75;25.28
69239;BME280;56349;51.816;-0.026;2023-02-14T12:20:32;102505.55;;;25.26;25.31
69239;BME280;56349;51.816;-0.026;2023-02-14T12:22:57;102501.67;;;25.80;25.31
69239;BME280;56349;51.816;-0.026;2023-02-14T12:25:19;102497.27;;;25.81;25.36
69239;BME280;56349;51.816;-0.026;2023-02-14T12:27:47;102495.69;;;25.59;25.44
69239;BME280;56349;51.816;-0.026;2023-02-14T12:30:26;102496.64;;;25.85;25.54
69239;BME280;56349;51.816;-0.026;2023-02-14T12:32:35;102495.55;;;25.47;25.62
69239;BME280;56349;51.816;-0.026;2023-02-14T12:35:02;102495.37;;;25.60;25.69
69239;BME280;56349;51.816;-0.026;2023-02-14T12:37:34;102492.21;;;25.67;25.69
69239;BME280;56349;51.816;-0.026;2023-02-14T12:40:01;102489.43;;;25.70;25.77
69239;BME280;56349;51.816;-0.026;2023-02-14T12:42:27;102486.95;;;25.78;25.82
69239;BME280;56349;51.816;-0.026;2023-02-14T12:44:46;102482.76;;;25.87;25.87
69239;BME280;56349;51.816;-0.026;2023-02-14T12:47:15;102482.85;;;26.25;25.92
69239;BME280;56349;51.816;-0.026;2023-02-14T12:49:44;102481.67;;;26.06;25.93
69239;BME280;56349;51.816;-0.026;2023-02-14T12:52:05;102476.68;;;26.17;25.97
69239;BME280;56349;51.816;-0.026;2023-02-14T12:56:55;102474.58;;;26.37;25.91
69239;BME280;56349;51.816;-0.026;2023-02-14T12:59:24;102465.67;;;26.71;25.95